createdAt,value
2022-11-08T00:00:28.755Z,12.73
2022-11-08T00:01:28.755Z,12.73
2022-11-08T00:02:28.922Z,12.73
2022-11-08T00:03:28.715Z,12.76
2022-11-08T00:04:28.706Z,12.76
2022-11-08T00:05:28.692Z,12.77
2022-11-08T00:06:28.686Z,12.76
2022-11-08T00:07:28.715Z,12.73
2022-11-08T00:08:28.658Z,12.72
2022-11-08T00:09:28.657Z,12.72
2022-11-08T00:10:28.638Z,12.76
2022-11-08T00:11:28.629Z,12.76
2022-11-08T00:12:28.619Z,12.76
2022-11-08T00:13:28.602Z,12.77
2022-11-08T00:14:28.592Z,12.79
2022-11-08T00:15:28.584Z,12.77
2022-11-08T00:16:28.576Z,12.77
2022-11-08T00:17:28.557Z,12.76
2022-11-08T00:18:28.549Z,12.77
2022-11-08T00:19:28.551Z,12.76
2022-11-08T00:20:28.521Z,12.73
2022-11-08T00:21:28.509Z,12.72
2022-11-08T00:22:28.499Z,12.69
2022-11-08T00:23:28.512Z,12.71
2022-11-08T00:24:28.481Z,12.69
2022-11-08T00:25:28.464Z,12.69
2022-11-08T00:26:28.458Z,12.69
2022-11-08T00:27:28.443Z,12.68
2022-11-08T00:28:28.438Z,12.65
2022-11-08T00:29:28.419Z,12.66
2022-11-08T00:30:28.422Z,12.66
2022-11-08T00:31:28.403Z,12.65
2022-11-08T00:32:28.384Z,12.63
2022-11-08T00:33:28.378Z,12.63
2022-11-08T00:34:28.361Z,12.63
2022-11-08T00:35:28.359Z,12.63
2022-11-08T00:36:28.339Z,12.60
2022-11-08T00:37:28.327Z,12.60
2022-11-08T00:38:28.327Z,12.58
2022-11-08T00:39:28.333Z,12.57
2022-11-08T00:40:28.295Z,12.54
2022-11-08T00:41:28.281Z,12.54
2022-11-08T00:42:28.277Z,12.53
2022-11-08T00:43:28.257Z,12.53
2022-11-08T00:44:28.248Z,12.52
2022-11-08T00:45:28.243Z,12.49
2022-11-08T00:46:28.233Z,12.47
2022-11-08T00:47:28.211Z,12.46
2022-11-08T00:48:28.202Z,12.46
2022-11-08T00:49:28.203Z,12.47
2022-11-08T00:50:28.185Z,12.47
2022-11-08T00:51:28.166Z,12.45
2022-11-08T00:52:28.154Z,12.40
2022-11-08T00:53:28.152Z,12.39
2022-11-08T00:54:28.132Z,12.37
2022-11-08T00:55:28.150Z,12.39
2022-11-08T00:56:28.115Z,12.42
2022-11-08T00:57:41.152Z,12.42
2022-11-08T00:58:28.755Z,12.42
2022-11-08T00:59:28.075Z,12.40
2022-11-08T01:00:28.063Z,12.40
2022-11-08T01:01:28.206Z,12.39
2022-11-08T01:02:28.131Z,12.39
2022-11-08T01:03:28.028Z,12.37
2022-11-08T01:04:28.018Z,12.35
2022-11-08T01:05:28.008Z,12.35
2022-11-08T01:06:27.995Z,12.37
2022-11-08T01:07:27.982Z,12.37
2022-11-08T01:08:27.977Z,12.35
2022-11-08T01:09:27.961Z,12.35
2022-11-08T01:10:27.951Z,12.34
2022-11-08T01:11:27.961Z,12.31
2022-11-08T01:12:27.925Z,12.32
2022-11-08T01:13:27.917Z,12.32
2022-11-08T01:14:27.903Z,12.34
2022-11-08T01:15:27.960Z,12.35
2022-11-08T01:16:27.917Z,12.34
2022-11-08T01:17:27.875Z,12.34
2022-11-08T01:18:27.894Z,12.34
2022-11-08T01:19:27.845Z,12.34
2022-11-08T01:20:27.833Z,12.34
2022-11-08T01:21:27.823Z,12.32
2022-11-08T01:22:27.810Z,12.35
2022-11-08T01:23:27.805Z,12.32
2022-11-08T01:24:27.786Z,12.34
2022-11-08T01:25:27.784Z,12.34
2022-11-08T01:26:27.773Z,12.32
2022-11-08T01:27:27.785Z,12.31
2022-11-08T01:28:27.743Z,12.31
2022-11-08T01:29:27.732Z,12.29
2022-11-08T01:30:27.725Z,12.29
2022-11-08T01:31:27.715Z,12.29
2022-11-08T01:32:27.696Z,12.28
2022-11-08T01:33:27.687Z,12.28
2022-11-08T01:34:27.672Z,12.28
2022-11-08T01:35:27.661Z,12.31
2022-11-08T01:36:27.657Z,12.27
2022-11-08T01:37:27.639Z,12.27
2022-11-08T01:38:27.629Z,12.25
2022-11-08T01:39:27.618Z,12.25
2022-11-08T01:40:27.612Z,12.24
2022-11-08T01:41:27.593Z,12.21
2022-11-08T01:42:27.582Z,12.22
2022-11-08T01:43:27.597Z,12.21
2022-11-08T01:44:27.559Z,12.20
2022-11-08T01:45:27.553Z,12.20
2022-11-08T01:46:27.535Z,12.20
2022-11-08T01:47:27.525Z,12.16
2022-11-08T01:48:27.517Z,12.17
2022-11-08T01:49:27.504Z,12.17
2022-11-08T01:50:27.488Z,12.16
2022-11-08T01:51:27.481Z,12.16
2022-11-08T01:52:27.469Z,12.16
2022-11-08T01:53:27.454Z,12.16
2022-11-08T01:54:27.444Z,12.16
2022-11-08T01:55:27.434Z,12.16
2022-11-08T01:56:27.419Z,12.17
2022-11-08T01:57:27.414Z,12.20
2022-11-08T01:58:27.395Z,12.21
2022-11-08T01:59:27.406Z,12.20
2022-11-08T02:00:27.373Z,12.21
2022-11-08T02:01:27.572Z,12.20
2022-11-08T02:02:27.420Z,12.21
2022-11-08T02:03:27.340Z,12.21
2022-11-08T02:04:27.329Z,12.21
2022-11-08T02:05:27.328Z,12.22
2022-11-08T02:06:27.305Z,12.20
2022-11-08T02:07:27.301Z,12.20
2022-11-08T02:08:27.282Z,12.20
2022-11-08T02:09:27.271Z,12.24
2022-11-08T02:10:27.259Z,12.27
2022-11-08T02:11:27.245Z,12.27
2022-11-08T02:12:27.239Z,12.27
2022-11-08T02:13:27.230Z,12.28
2022-11-08T02:14:27.214Z,12.31
2022-11-08T02:15:27.222Z,12.32
2022-11-08T02:16:27.197Z,12.31
2022-11-08T02:17:27.183Z,12.32
2022-11-08T02:18:27.165Z,12.34
2022-11-08T02:19:27.162Z,12.35
2022-11-08T02:20:27.143Z,12.37
2022-11-08T02:21:27.141Z,12.37
2022-11-08T02:22:27.122Z,12.37
2022-11-08T02:23:27.115Z,12.37
2022-11-08T02:24:27.099Z,12.35
2022-11-08T02:25:27.089Z,12.34
2022-11-08T02:26:27.076Z,12.34
2022-11-08T02:27:27.079Z,12.34
2022-11-08T02:28:27.051Z,12.34
2022-11-08T02:29:27.040Z,12.31
2022-11-08T02:30:27.028Z,12.31
2022-11-08T02:31:27.040Z,12.31
2022-11-08T02:32:27.007Z,12.29
2022-11-08T02:33:26.998Z,12.29
2022-11-08T02:34:26.983Z,12.29
2022-11-08T02:35:26.970Z,12.29
2022-11-08T02:36:26.962Z,12.29
2022-11-08T02:37:26.951Z,12.29
2022-11-08T02:38:26.937Z,12.28
2022-11-08T02:39:26.931Z,12.27
2022-11-08T02:40:26.913Z,12.27
2022-11-08T02:41:26.899Z,12.27
2022-11-08T02:42:26.894Z,12.28
2022-11-08T02:43:26.880Z,12.29
2022-11-08T02:44:26.873Z,12.29
2022-11-08T02:45:26.854Z,12.27
2022-11-08T02:46:26.852Z,12.28
2022-11-08T02:47:26.860Z,12.27
2022-11-08T02:48:26.821Z,12.28
2022-11-08T02:49:26.816Z,12.27
2022-11-08T02:50:26.807Z,12.25
2022-11-08T02:51:26.788Z,12.24
2022-11-08T02:52:26.775Z,12.22
2022-11-08T02:53:26.763Z,12.24
2022-11-08T02:54:26.751Z,12.25
2022-11-08T02:55:26.742Z,12.22
2022-11-08T02:56:26.736Z,12.22
2022-11-08T02:57:26.716Z,12.24
2022-11-08T02:58:26.712Z,12.25
2022-11-08T02:59:26.702Z,12.25
2022-11-08T03:00:26.687Z,12.24
2022-11-08T03:01:26.778Z,12.25
2022-11-08T03:02:26.809Z,12.22
2022-11-08T03:03:26.675Z,12.22
2022-11-08T03:04:26.638Z,12.20
2022-11-08T03:05:26.629Z,12.20
2022-11-08T03:06:26.614Z,12.17
2022-11-08T03:07:26.604Z,12.17
2022-11-08T03:08:26.600Z,12.17
2022-11-08T03:09:26.577Z,12.17
2022-11-08T03:10:26.588Z,12.17
2022-11-08T03:11:26.569Z,12.16
2022-11-08T03:12:26.545Z,12.14
2022-11-08T03:13:26.536Z,12.12
2022-11-08T03:14:26.525Z,12.10
2022-11-08T03:15:26.516Z,12.09
2022-11-08T03:16:26.505Z,12.09
2022-11-08T03:17:26.493Z,12.09
2022-11-08T03:18:26.477Z,12.09
2022-11-08T03:19:26.487Z,12.10
2022-11-08T03:20:32.214Z,12.10
2022-11-08T03:21:26.439Z,12.10
2022-11-08T03:22:26.429Z,12.12
2022-11-08T03:23:26.426Z,12.10
2022-11-08T03:24:26.408Z,12.12
2022-11-08T03:25:26.396Z,12.12
2022-11-08T03:26:26.389Z,12.12
2022-11-08T03:27:26.375Z,12.12
2022-11-08T03:28:26.609Z,12.12
2022-11-08T03:29:26.349Z,12.09
2022-11-08T03:30:26.337Z,12.09
2022-11-08T03:31:26.326Z,12.09
2022-11-08T03:32:26.316Z,12.07
2022-11-08T03:33:26.309Z,12.06
2022-11-08T03:34:26.293Z,12.09
2022-11-08T03:35:26.314Z,12.09
2022-11-08T03:36:26.268Z,12.07
2022-11-08T03:37:26.257Z,12.09
2022-11-08T03:38:26.244Z,12.07
2022-11-08T03:39:26.234Z,12.07
2022-11-08T03:40:26.223Z,12.07
2022-11-08T03:41:26.220Z,12.07
2022-11-08T03:42:26.199Z,12.07
2022-11-08T03:43:26.196Z,12.07
2022-11-08T03:44:26.177Z,12.07
2022-11-08T03:45:26.163Z,12.10
2022-11-08T03:46:26.154Z,12.10
2022-11-08T03:47:26.142Z,12.09
2022-11-08T03:48:26.135Z,12.09
2022-11-08T03:49:26.124Z,12.07
2022-11-08T03:50:26.115Z,12.06
2022-11-08T03:51:26.120Z,12.06
2022-11-08T03:52:26.088Z,12.04
2022-11-08T03:53:26.072Z,12.06
2022-11-08T03:54:26.080Z,12.03
2022-11-08T03:55:26.049Z,11.99
2022-11-08T03:56:26.039Z,11.98
2022-11-08T03:57:26.035Z,11.98
2022-11-08T03:58:26.019Z,11.96
2022-11-08T03:59:26.012Z,11.95
2022-11-08T04:00:25.997Z,11.92
2022-11-08T04:01:26.147Z,11.92
2022-11-08T04:02:26.062Z,11.94
2022-11-08T04:03:25.959Z,11.92
2022-11-08T04:04:25.949Z,11.91
2022-11-08T04:05:25.944Z,11.92
2022-11-08T04:06:25.930Z,11.92
2022-11-08T04:07:25.935Z,11.91
2022-11-08T04:08:25.909Z,11.91
2022-11-08T04:09:25.890Z,11.89
2022-11-08T04:10:25.885Z,11.87
2022-11-08T04:11:25.868Z,11.85
2022-11-08T04:12:25.856Z,11.84
2022-11-08T04:13:25.852Z,11.82
2022-11-08T04:14:25.832Z,11.80
2022-11-08T04:15:25.822Z,11.80
2022-11-08T04:16:25.874Z,11.79
2022-11-08T04:17:25.801Z,11.76
2022-11-08T04:18:25.794Z,11.76
2022-11-08T04:19:25.776Z,11.76
2022-11-08T04:20:25.764Z,11.76
2022-11-08T04:21:25.754Z,11.74
2022-11-08T04:22:25.741Z,11.73
2022-11-08T04:23:25.756Z,11.71
2022-11-08T04:24:25.718Z,11.71
2022-11-08T04:25:25.706Z,11.70
2022-11-08T04:26:25.696Z,11.71
2022-11-08T04:27:25.687Z,11.71
2022-11-08T04:28:25.672Z,11.70
2022-11-08T04:29:25.668Z,11.69
2022-11-08T04:30:25.659Z,11.67
2022-11-08T04:31:25.637Z,11.67
2022-11-08T04:32:25.627Z,11.67
2022-11-08T04:33:25.617Z,11.66
2022-11-08T04:34:25.609Z,11.64
2022-11-08T04:35:25.591Z,11.62
2022-11-08T04:36:25.580Z,11.61
2022-11-08T04:37:25.568Z,11.62
2022-11-08T04:38:25.556Z,11.64
2022-11-08T04:39:25.569Z,11.64
2022-11-08T04:40:25.540Z,11.66
2022-11-08T04:41:25.522Z,11.64
2022-11-08T04:42:25.513Z,11.66
2022-11-08T04:43:25.499Z,11.62
2022-11-08T04:44:25.487Z,11.59
2022-11-08T04:45:25.475Z,11.55
2022-11-08T04:46:25.463Z,11.54
2022-11-08T04:47:25.460Z,11.51
2022-11-08T04:48:25.448Z,11.46
2022-11-08T04:49:25.438Z,11.41
2022-11-08T04:50:25.425Z,11.41
2022-11-08T04:51:25.406Z,11.43
2022-11-08T04:52:25.399Z,11.40
2022-11-08T04:53:25.392Z,11.40
2022-11-08T04:54:25.372Z,11.31
2022-11-08T04:55:25.424Z,11.27
2022-11-08T04:56:25.356Z,11.25
2022-11-08T04:57:25.343Z,11.22
2022-11-08T04:58:25.335Z,11.22
2022-11-08T04:59:25.315Z,11.19
2022-11-08T05:00:25.304Z,11.17
2022-11-08T05:01:25.460Z,11.14
2022-11-08T05:02:25.474Z,11.12
2022-11-08T05:03:25.268Z,11.14
2022-11-08T05:04:25.271Z,11.17
2022-11-08T05:05:25.246Z,11.14
2022-11-08T05:06:25.234Z,11.12
2022-11-08T05:07:25.224Z,11.12
2022-11-08T05:08:25.213Z,11.11
2022-11-08T05:09:25.203Z,11.08
2022-11-08T05:10:25.189Z,11.07
2022-11-08T05:11:25.200Z,11.04
2022-11-08T05:12:25.166Z,11.03
2022-11-08T05:13:25.158Z,11.02
2022-11-08T05:14:25.143Z,10.99
2022-11-08T05:15:25.131Z,10.99
2022-11-08T05:16:25.122Z,10.97
2022-11-08T05:17:25.111Z,10.99
2022-11-08T05:18:25.097Z,10.99
2022-11-08T05:19:25.085Z,10.99
2022-11-08T05:20:25.079Z,10.99
2022-11-08T05:21:25.061Z,10.99
2022-11-08T05:22:25.050Z,10.96
2022-11-08T05:23:25.042Z,10.94
2022-11-08T05:24:25.026Z,10.94
2022-11-08T05:25:25.018Z,10.90
2022-11-08T05:26:25.008Z,10.92
2022-11-08T05:27:25.016Z,10.92
2022-11-08T05:28:24.986Z,10.92
2022-11-08T05:29:24.977Z,10.92
2022-11-08T05:30:24.961Z,10.92
2022-11-08T05:31:24.959Z,10.89
2022-11-08T05:32:24.939Z,10.92
2022-11-08T05:33:24.923Z,10.92
2022-11-08T05:34:24.916Z,10.92
2022-11-08T05:35:24.900Z,10.92
2022-11-08T05:36:24.891Z,10.89
2022-11-08T05:37:24.882Z,10.89
2022-11-08T05:38:24.866Z,10.90
2022-11-08T05:39:28.288Z,10.92
2022-11-08T05:40:28.202Z,10.93
2022-11-08T05:41:24.833Z,10.90
2022-11-08T05:42:24.824Z,10.90
2022-11-08T05:43:26.838Z,10.89
2022-11-08T05:44:24.796Z,10.85
2022-11-08T05:45:24.786Z,10.82
2022-11-08T05:46:24.788Z,10.84
2022-11-08T05:47:24.764Z,10.81
2022-11-08T05:48:24.749Z,10.84
2022-11-08T05:49:24.740Z,10.82
2022-11-08T05:50:24.728Z,10.86
2022-11-08T05:51:24.724Z,10.85
2022-11-08T05:52:24.703Z,10.86
2022-11-08T05:53:24.696Z,10.85
2022-11-08T05:54:26.680Z,10.84
2022-11-08T05:55:26.672Z,10.82
2022-11-08T05:56:24.676Z,10.82
2022-11-08T05:57:24.648Z,10.82
2022-11-08T05:58:26.637Z,10.84
2022-11-08T05:59:24.650Z,10.82
2022-11-08T06:00:24.621Z,10.79
2022-11-08T06:01:24.726Z,10.78
2022-11-08T06:02:24.769Z,10.77
2022-11-08T06:03:25.064Z,10.74
2022-11-08T06:04:24.569Z,10.71
2022-11-08T06:05:26.557Z,10.71
2022-11-08T06:06:24.555Z,10.67
2022-11-08T06:07:24.535Z,10.63
2022-11-08T06:08:26.525Z,10.63
2022-11-08T06:09:24.515Z,10.64
2022-11-08T06:10:24.499Z,10.63
2022-11-08T06:11:24.493Z,10.60
2022-11-08T06:12:24.479Z,10.54
2022-11-08T06:13:24.468Z,10.53
2022-11-08T06:14:24.455Z,10.53
2022-11-08T06:15:24.469Z,10.53
2022-11-08T06:16:24.436Z,10.53
2022-11-08T06:17:26.227Z,10.53
2022-11-08T06:18:24.413Z,10.51
2022-11-08T06:19:24.403Z,10.53
2022-11-08T06:20:24.388Z,10.51
2022-11-08T06:21:24.376Z,10.53
2022-11-08T06:22:24.364Z,10.53
2022-11-08T06:23:26.358Z,10.49
2022-11-08T06:24:24.341Z,10.51
2022-11-08T06:25:24.330Z,10.49
2022-11-08T06:26:24.331Z,10.49
2022-11-08T06:27:24.309Z,10.51
2022-11-08T06:28:24.300Z,10.54
2022-11-08T06:29:24.285Z,10.54
2022-11-08T06:30:24.281Z,10.51
2022-11-08T06:31:24.289Z,10.49
2022-11-08T06:32:24.255Z,10.51
2022-11-08T06:33:24.239Z,10.54
2022-11-08T06:34:24.228Z,10.57
2022-11-08T06:35:24.218Z,10.56
2022-11-08T06:36:24.207Z,10.56
2022-11-08T06:37:24.194Z,10.57
2022-11-08T06:38:24.186Z,10.60
2022-11-08T06:39:24.172Z,10.61
2022-11-08T06:40:24.163Z,10.63
2022-11-08T06:41:24.148Z,10.64
2022-11-08T06:42:24.138Z,10.66
2022-11-08T06:43:24.393Z,10.67
2022-11-08T06:44:24.120Z,10.67
2022-11-08T06:45:24.107Z,10.69
2022-11-08T06:46:24.091Z,10.71
2022-11-08T06:47:24.110Z,10.69
2022-11-08T06:48:24.074Z,10.64
2022-11-08T06:49:24.061Z,10.64
2022-11-08T06:50:24.050Z,10.66
2022-11-08T06:51:24.034Z,10.66
2022-11-08T06:52:24.032Z,10.71
2022-11-08T06:53:24.012Z,10.74
2022-11-08T06:54:26.105Z,10.77
2022-11-08T06:55:23.992Z,10.81
2022-11-08T06:56:23.978Z,10.81
2022-11-08T06:57:23.966Z,10.81
2022-11-08T06:58:23.955Z,10.82
2022-11-08T06:59:23.943Z,10.85
2022-11-08T07:00:23.938Z,10.85
2022-11-08T07:01:24.041Z,10.89
2022-11-08T07:02:24.029Z,10.90
2022-11-08T07:03:23.930Z,10.90
2022-11-08T07:04:23.888Z,10.84
2022-11-08T07:05:23.877Z,10.79
2022-11-08T07:06:23.875Z,10.79
2022-11-08T07:07:23.854Z,10.79
2022-11-08T07:08:24.444Z,10.77
2022-11-08T07:09:23.834Z,10.77
2022-11-08T07:10:23.874Z,10.75
2022-11-08T07:11:23.931Z,10.71
2022-11-08T07:12:23.797Z,10.69
2022-11-08T07:13:23.786Z,10.69
2022-11-08T07:14:23.777Z,10.74
2022-11-08T07:15:23.767Z,10.82
2022-11-08T07:16:23.773Z,10.86
2022-11-08T07:17:23.740Z,10.92
2022-11-08T07:18:23.780Z,10.94
2022-11-08T07:19:23.750Z,10.97
2022-11-08T07:20:23.707Z,10.97
2022-11-08T07:21:23.698Z,10.99
2022-11-08T07:22:23.692Z,10.97
2022-11-08T07:23:23.981Z,10.90
2022-11-08T07:24:23.666Z,10.93
2022-11-08T07:25:23.655Z,10.97
2022-11-08T07:26:23.638Z,10.97
2022-11-08T07:27:23.640Z,11.03
2022-11-08T07:28:23.619Z,11.10
2022-11-08T07:29:23.604Z,11.15
2022-11-08T07:30:23.592Z,11.22
2022-11-08T07:31:23.585Z,11.27
2022-11-08T07:32:23.574Z,11.33
2022-11-08T07:33:23.566Z,11.36
2022-11-08T07:34:23.548Z,11.36
2022-11-08T07:35:23.560Z,11.34
2022-11-08T07:36:23.530Z,11.31
2022-11-08T07:37:23.518Z,11.31
2022-11-08T07:38:23.501Z,11.34
2022-11-08T07:39:23.493Z,11.37
2022-11-08T07:40:23.495Z,11.48
2022-11-08T07:41:23.468Z,11.61
2022-11-08T07:42:23.469Z,11.89
2022-11-08T07:43:23.821Z,12.17
2022-11-08T07:44:23.449Z,12.37
2022-11-08T07:45:23.423Z,12.49
2022-11-08T07:46:23.465Z,12.58
2022-11-08T07:47:23.402Z,12.65
2022-11-08T07:48:23.465Z,12.63
2022-11-08T07:49:23.380Z,12.57
2022-11-08T07:50:23.417Z,12.31
2022-11-08T07:51:23.381Z,12.27
2022-11-08T07:52:23.346Z,12.17
2022-11-08T07:53:23.339Z,12.16
2022-11-08T07:54:23.357Z,12.17
2022-11-08T07:55:23.308Z,12.17
2022-11-08T07:56:23.370Z,12.28
2022-11-08T07:57:23.285Z,12.42
2022-11-08T07:58:23.287Z,12.63
2022-11-08T07:59:23.261Z,12.69
2022-11-08T08:00:23.271Z,12.71
2022-11-08T08:01:23.239Z,12.84
2022-11-08T08:02:23.327Z,13.29
2022-11-08T08:03:23.818Z,13.90
2022-11-08T08:04:23.218Z,14.48
2022-11-08T08:05:23.197Z,14.73
2022-11-08T08:06:23.207Z,15.22
2022-11-08T08:07:23.203Z,15.93
2022-11-08T08:08:23.194Z,16.36
2022-11-08T08:09:23.148Z,16.71
2022-11-08T08:10:23.134Z,16.91
2022-11-08T08:11:23.125Z,17.12
2022-11-08T08:12:23.112Z,17.24
2022-11-08T08:13:23.105Z,16.98
2022-11-08T08:14:23.125Z,16.79
2022-11-08T08:15:23.081Z,17.02
2022-11-08T08:16:23.067Z,17.54
2022-11-08T08:17:23.060Z,17.65
2022-11-08T08:18:23.055Z,17.54
2022-11-08T08:19:23.044Z,17.67
2022-11-08T08:20:23.027Z,17.43
2022-11-08T08:21:23.014Z,17.82
2022-11-08T08:22:23.001Z,17.68
2022-11-08T08:23:23.013Z,17.77
2022-11-08T08:24:23.035Z,17.92
2022-11-08T08:25:22.971Z,18.27
2022-11-08T08:26:22.957Z,18.67
2022-11-08T08:27:22.944Z,19.00
2022-11-08T08:28:22.969Z,19.00
2022-11-08T08:29:22.921Z,19.08
2022-11-08T08:30:22.936Z,19.25
2022-11-08T08:31:22.904Z,19.52
2022-11-08T08:32:22.885Z,19.56
2022-11-08T08:33:30.293Z,19.70
2022-11-08T08:34:22.914Z,19.69
2022-11-08T08:35:22.852Z,19.90
2022-11-08T08:36:22.899Z,20.05
2022-11-08T08:37:22.836Z,20.44
2022-11-08T08:38:22.866Z,20.18
2022-11-08T08:39:22.872Z,19.67
2022-11-08T08:40:22.873Z,19.71
2022-11-08T08:41:22.784Z,19.92
2022-11-08T08:42:22.797Z,20.45
2022-11-08T08:43:23.037Z,21.03
2022-11-08T08:44:22.786Z,21.48
2022-11-08T08:45:22.743Z,21.35
2022-11-08T08:46:22.796Z,20.78
2022-11-08T08:47:22.719Z,20.47
2022-11-08T08:48:22.752Z,20.81
2022-11-08T08:49:22.713Z,20.63
2022-11-08T08:50:22.701Z,20.02
2022-11-08T08:51:22.690Z,20.22
2022-11-08T08:52:22.667Z,20.09
2022-11-08T08:53:22.763Z,20.07
2022-11-08T08:54:26.776Z,19.96
2022-11-08T08:55:22.651Z,19.66
2022-11-08T08:56:22.621Z,19.41
2022-11-08T08:57:22.607Z,19.41
2022-11-08T08:58:22.604Z,19.59
2022-11-08T09:01:38.281Z,20.41
2022-11-08T09:02:22.564Z,20.18
2022-11-08T09:03:22.620Z,19.79
2022-11-08T09:04:22.529Z,19.62
2022-11-08T09:05:22.518Z,19.36
2022-11-08T09:06:22.505Z,19.59
2022-11-08T09:07:22.565Z,19.75
2022-11-08T09:08:22.480Z,19.38
2022-11-08T09:09:22.471Z,19.44
2022-11-08T09:10:22.457Z,19.89
2022-11-08T09:11:22.469Z,20.02
2022-11-08T09:12:22.436Z,19.82
2022-11-08T09:13:22.523Z,19.94
2022-11-08T09:14:22.413Z,20.26
2022-11-08T09:15:22.415Z,19.89
2022-11-08T09:16:22.386Z,20.00
2022-11-08T09:17:22.379Z,19.87
2022-11-08T09:18:22.437Z,19.97
2022-11-08T09:19:22.352Z,19.71
2022-11-08T09:20:22.343Z,19.55
2022-11-08T09:21:22.433Z,19.52
2022-11-08T09:22:22.326Z,20.07
2022-11-08T09:23:22.309Z,20.39
2022-11-08T09:24:22.298Z,20.78
2022-11-08T09:25:22.288Z,20.64
2022-11-08T09:26:22.281Z,20.82
2022-11-08T09:27:22.321Z,20.52
2022-11-08T09:28:24.967Z,20.69
2022-11-08T09:29:22.249Z,20.49
2022-11-08T09:30:22.328Z,20.59
2022-11-08T09:31:22.227Z,20.37
2022-11-08T09:32:33.690Z,20.05
2022-11-08T09:33:22.247Z,20.49
2022-11-08T09:34:22.188Z,20.92
2022-11-08T09:35:22.175Z,21.09
2022-11-08T09:36:22.166Z,21.10
2022-11-08T09:37:22.191Z,20.99
2022-11-08T09:38:22.143Z,20.84
2022-11-08T09:39:22.140Z,21.02
2022-11-08T09:40:22.235Z,20.69
2022-11-08T09:41:22.127Z,20.67
2022-11-08T09:42:22.099Z,20.70
2022-11-08T09:43:22.111Z,20.49
2022-11-08T09:44:22.078Z,20.62
2022-11-08T09:45:22.065Z,20.63
2022-11-08T09:46:22.057Z,20.49
2022-11-08T09:47:22.042Z,20.76
2022-11-08T09:48:22.033Z,20.97
2022-11-08T09:49:22.021Z,20.94
2022-11-08T09:50:22.014Z,20.87
2022-11-08T09:51:21.997Z,20.73
2022-11-08T09:52:21.991Z,21.07
2022-11-08T09:53:21.975Z,21.35
2022-11-08T09:54:21.963Z,21.43
2022-11-08T09:55:21.960Z,20.79
2022-11-08T09:56:22.091Z,20.34
2022-11-08T09:57:21.930Z,20.11
2022-11-08T09:58:21.919Z,19.96
2022-11-08T09:59:21.929Z,20.05
2022-11-08T10:00:21.895Z,19.87
2022-11-08T10:01:26.725Z,20.11
2022-11-08T10:02:21.956Z,20.81
2022-11-08T10:03:21.870Z,21.20
2022-11-08T10:04:21.850Z,21.67
2022-11-08T10:05:21.839Z,22.22
2022-11-08T10:06:21.830Z,22.21
2022-11-08T10:07:21.898Z,21.97
2022-11-08T10:08:21.811Z,21.89
2022-11-08T10:09:21.793Z,21.99
2022-11-08T10:10:21.782Z,22.03
2022-11-08T10:11:21.778Z,22.36
2022-11-08T10:12:21.759Z,22.67
2022-11-08T10:13:21.757Z,22.59
2022-11-08T10:14:21.740Z,21.81
2022-11-08T10:15:21.770Z,21.63
2022-11-08T10:16:21.731Z,21.53
2022-11-08T10:17:21.799Z,20.88
2022-11-08T10:18:21.704Z,20.60
2022-11-08T10:19:21.687Z,20.52
2022-11-08T10:20:21.701Z,20.64
2022-11-08T10:21:21.664Z,20.54
2022-11-08T10:22:21.650Z,20.55
2022-11-08T10:23:21.664Z,20.87
2022-11-08T10:24:21.633Z,20.70
2022-11-08T10:25:21.615Z,20.73
2022-11-08T10:26:26.703Z,21.09
2022-11-08T10:27:21.604Z,21.06
2022-11-08T10:28:21.584Z,21.04
2022-11-08T10:29:21.573Z,21.09
2022-11-08T10:30:21.571Z,21.56
2022-11-08T10:31:21.622Z,22.11
2022-11-08T10:32:21.550Z,22.80
2022-11-08T10:33:21.692Z,23.03
2022-11-08T10:34:21.525Z,22.76
2022-11-08T10:35:21.506Z,22.91
2022-11-08T10:36:21.513Z,23.23
2022-11-08T10:37:21.486Z,23.28
2022-11-08T10:38:21.473Z,23.17
2022-11-08T10:39:21.471Z,23.10
2022-11-08T10:40:21.456Z,23.43
2022-11-08T10:41:21.437Z,23.51
2022-11-08T10:42:21.433Z,23.10
2022-11-08T10:43:21.773Z,23.13
2022-11-08T10:44:21.407Z,23.30
2022-11-08T10:45:21.393Z,22.93
2022-11-08T10:46:21.389Z,22.81
2022-11-08T10:47:21.398Z,22.89
2022-11-08T10:48:21.372Z,22.30
2022-11-08T10:49:21.350Z,22.02
2022-11-08T10:50:21.347Z,21.67
2022-11-08T10:51:21.329Z,21.56
2022-11-08T10:52:21.316Z,21.20
2022-11-08T10:53:21.519Z,21.34
2022-11-08T10:54:21.295Z,21.26
2022-11-08T10:55:21.287Z,21.51
2022-11-08T10:56:21.276Z,21.50
2022-11-08T10:57:21.260Z,21.43
2022-11-08T10:58:21.251Z,21.51
2022-11-08T10:59:21.249Z,21.59
2022-11-08T11:00:21.266Z,21.78
2022-11-08T11:01:21.322Z,21.59
2022-11-08T11:02:21.272Z,21.75
2022-11-08T11:03:21.264Z,22.06
2022-11-08T11:04:21.310Z,21.92
2022-11-08T11:05:21.281Z,21.62
2022-11-08T11:06:21.171Z,21.25
2022-11-08T11:07:21.242Z,21.15
2022-11-08T11:08:21.532Z,21.34
2022-11-08T11:09:21.128Z,21.32
2022-11-08T11:10:21.122Z,21.35
2022-11-08T11:11:21.105Z,21.56
2022-11-08T11:12:21.095Z,21.75
2022-11-08T11:13:21.141Z,21.90
2022-11-08T11:14:22.565Z,22.18
2022-11-08T11:15:21.060Z,22.37
2022-11-08T11:16:21.049Z,22.78
2022-11-08T11:17:21.125Z,23.10
2022-11-08T11:18:21.257Z,23.01
2022-11-08T11:19:21.040Z,22.70
2022-11-08T11:20:21.008Z,22.33
2022-11-08T11:21:20.994Z,22.83
2022-11-08T11:22:20.982Z,23.43
2022-11-08T11:23:20.972Z,23.72
2022-11-08T11:24:20.960Z,23.96
2022-11-08T11:25:20.951Z,24.38
2022-11-08T11:26:20.935Z,24.78
2022-11-08T11:27:20.927Z,24.89
2022-11-08T11:28:20.916Z,24.77
2022-11-08T11:29:20.905Z,24.59
2022-11-08T11:30:20.900Z,24.48
2022-11-08T11:31:20.880Z,24.18
2022-11-08T11:32:20.872Z,23.60
2022-11-08T11:33:20.877Z,23.38
2022-11-08T11:34:20.847Z,23.41
2022-11-08T11:35:20.861Z,23.33
2022-11-08T11:36:20.825Z,23.11
2022-11-08T11:37:20.817Z,22.91
2022-11-08T11:38:20.936Z,22.62
2022-11-08T11:39:20.791Z,22.92
2022-11-08T11:40:20.786Z,23.30
2022-11-08T11:41:20.834Z,23.81
2022-11-08T11:42:47.723Z,24.19
2022-11-08T11:43:20.748Z,24.38
2022-11-08T11:44:20.734Z,23.50
2022-11-08T11:45:20.727Z,23.06
2022-11-08T11:46:20.712Z,23.10
2022-11-08T11:47:20.701Z,23.01
2022-11-08T11:48:20.974Z,23.10
2022-11-08T11:49:20.681Z,23.11
2022-11-08T11:50:20.673Z,22.98
2022-11-08T11:51:20.751Z,22.52
2022-11-08T11:52:20.660Z,22.62
2022-11-08T11:53:20.641Z,22.78
2022-11-08T11:54:20.623Z,22.39
2022-11-08T11:55:20.612Z,22.21
2022-11-08T11:56:20.609Z,21.85
2022-11-08T11:57:20.590Z,21.73
2022-11-08T11:58:20.763Z,22.05
2022-11-08T11:59:20.564Z,22.36
2022-11-08T12:00:20.559Z,22.20
2022-11-08T12:01:20.549Z,22.62
2022-11-08T12:02:20.624Z,22.76
2022-11-08T12:03:20.691Z,22.88
2022-11-08T12:04:20.510Z,23.29
2022-11-08T12:05:20.837Z,23.26
2022-11-08T12:06:20.487Z,23.60
2022-11-08T12:07:20.588Z,24.07
2022-11-08T12:08:20.706Z,24.65
2022-11-08T12:09:20.452Z,24.95
2022-11-08T12:10:20.458Z,25.20
2022-11-08T12:11:20.431Z,25.22
2022-11-08T12:12:20.424Z,25.15
2022-11-08T12:13:20.414Z,25.29
2022-11-08T12:14:20.401Z,25.33
2022-11-08T12:15:20.385Z,24.70
2022-11-08T12:16:20.382Z,24.33
2022-11-08T12:17:20.363Z,23.80
2022-11-08T12:18:41.000Z,23.30
2022-11-08T12:19:20.341Z,23.40
2022-11-08T12:20:25.688Z,23.68
2022-11-08T12:21:20.325Z,23.62
2022-11-08T12:22:20.307Z,23.47
2022-11-08T12:23:20.321Z,23.65
2022-11-08T12:24:20.291Z,23.43
2022-11-08T12:25:20.294Z,23.07
2022-11-08T12:26:20.263Z,23.15
2022-11-08T12:27:20.251Z,23.11
2022-11-08T12:28:20.454Z,23.32
2022-11-08T12:29:20.232Z,23.51
2022-11-08T12:30:20.222Z,23.62
2022-11-08T12:31:20.209Z,23.32
2022-11-08T12:32:20.198Z,23.66
2022-11-08T12:33:20.189Z,23.68
2022-11-08T12:34:20.180Z,23.43
2022-11-08T12:35:20.170Z,23.25
2022-11-08T12:36:20.161Z,23.08
2022-11-08T12:37:20.148Z,23.01
2022-11-08T12:38:20.574Z,23.44
2022-11-08T12:39:23.523Z,23.48
2022-11-08T12:40:20.118Z,23.15
2022-11-08T12:41:20.097Z,23.11
2022-11-08T12:42:20.084Z,23.51
2022-11-08T12:43:20.073Z,23.88
2022-11-08T12:44:20.068Z,23.81
2022-11-08T12:45:20.051Z,23.32
2022-11-08T12:46:20.040Z,23.25
2022-11-08T12:47:20.030Z,23.30
2022-11-08T12:48:20.324Z,23.73
2022-11-08T12:49:20.010Z,23.91
2022-11-08T12:50:19.995Z,23.87
2022-11-08T12:51:19.999Z,23.25
2022-11-08T12:52:19.972Z,22.93
2022-11-08T12:53:19.981Z,22.81
2022-11-08T12:54:19.959Z,22.93